sensor_id;sensor_type;location;lat;lon;timestamp;P1;durP1;ratioP1;P2;durP2;ratioP2
12631;SDS011;6381;45.748;12.106;2022-11-10T00:02:37;56.43;;;48.60;;
12631;SDS011;6381;45.748;12.106;2022-11-10T00:05:28;56.87;;;48.53;;
12631;SDS011;6381;45.748;12.106;2022-11-10T00:08:34;59.97;;;50.97;;
12631;SDS011;6381;45.748;12.106;2022-11-10T00:14:27;56.57;;;48.47;;
12631;SDS011;6381;45.748;12.106;2022-11-10T00:17:28;54.70;;;46.87;;
12631;SDS011;6381;45.748;12.106;2022-11-10T00:20:16;53.67;;;47.43;;
12631;SDS011;6381;45.748;12.106;2022-11-10T00:23:04;53.13;;;45.67;;
12631;SDS011;6381;45.748;12.106;2022-11-10T00:25:51;52.80;;;46.07;;
12631;SDS011;6381;45.748;12.106;2022-11-10T00:28:38;53.73;;;47.70;;
12631;SDS011;6381;45.748;12.106;2022-11-10T00:31:26;53.50;;;47.43;;
12631;SDS011;6381;45.748;12.106;2022-11-10T00:34:14;53.30;;;47.50;;
12631;SDS011;6381;45.748;12.106;2022-11-10T00:37:03;54.70;;;48.70;;
12631;SDS011;6381;45.748;12.106;2022-11-10T00:39:51;56.60;;;48.83;;
12631;SDS011;6381;45.748;12.106;2022-11-10T00:42:38;55.40;;;49.20;;
12631;SDS011;6381;45.748;12.106;2022-11-10T00:45:25;54.80;;;48.70;;
12631;SDS011;6381;45.748;12.106;2022-11-10T00:48:12;56.30;;;49.57;;
12631;SDS011;6381;45.748;12.106;2022-11-10T00:51:00;55.57;;;48.50;;
12631;SDS011;6381;45.748;12.106;2022-11-10T00:53:49;55.73;;;48.77;;
12631;SDS011;6381;45.748;12.106;2022-11-10T00:59:42;55.93;;;49.90;;
12631;SDS011;6381;45.748;12.106;2022-11-10T01:02:29;56.43;;;50.30;;
12631;SDS011;6381;45.748;12.106;2022-11-10T01:05:18;57.90;;;50.17;;
12631;SDS011;6381;45.748;12.106;2022-11-10T01:08:06;54.93;;;48.93;;
12631;SDS011;6381;45.748;12.106;2022-11-10T01:11:01;59.87;;;51.07;;
12631;SDS011;6381;45.748;12.106;2022-11-10T01:13:49;57.03;;;49.97;;
12631;SDS011;6381;45.748;12.106;2022-11-10T01:16:55;58.50;;;50.07;;
12631;SDS011;6381;45.748;12.106;2022-11-10T01:19:42;57.07;;;51.10;;
12631;SDS011;6381;45.748;12.106;2022-11-10T01:25:35;59.13;;;50.07;;
12631;SDS011;6381;45.748;12.106;2022-11-10T01:28:24;56.20;;;49.80;;
12631;SDS011;6381;45.748;12.106;2022-11-10T01:34:17;56.93;;;50.57;;
12631;SDS011;6381;45.748;12.106;2022-11-10T01:37:04;58.47;;;49.77;;
12631;SDS011;6381;45.748;12.106;2022-11-10T01:39:53;58.23;;;49.23;;
12631;SDS011;6381;45.748;12.106;2022-11-10T01:42:43;57.27;;;49.83;;
12631;SDS011;6381;45.748;12.106;2022-11-10T01:45:44;54.40;;;47.73;;
12631;SDS011;6381;45.748;12.106;2022-11-10T01:48:35;57.47;;;47.87;;
12631;SDS011;6381;45.748;12.106;2022-11-10T01:51:27;52.67;;;46.57;;
12631;SDS011;6381;45.748;12.106;2022-11-10T01:54:22;60.33;;;50.13;;
12631;SDS011;6381;45.748;12.106;2022-11-10T01:57:11;55.33;;;48.57;;
12631;SDS011;6381;45.748;12.106;2022-11-10T02:00:00;53.57;;;47.60;;
12631;SDS011;6381;45.748;12.106;2022-11-10T02:02:53;53.17;;;47.10;;
12631;SDS011;6381;45.748;12.106;2022-11-10T02:05:43;53.93;;;47.03;;
12631;SDS011;6381;45.748;12.106;2022-11-10T02:08:49;52.73;;;47.00;;
12631;SDS011;6381;45.748;12.106;2022-11-10T02:11:55;50.10;;;44.53;;
12631;SDS011;6381;45.748;12.106;2022-11-10T02:15:21;49.40;;;43.60;;
12631;SDS011;6381;45.748;12.106;2022-11-10T02:21:21;50.47;;;43.90;;
12631;SDS011;6381;45.748;12.106;2022-11-10T02:24:08;45.53;;;39.20;;
12631;SDS011;6381;45.748;12.106;2022-11-10T02:26:56;45.80;;;40.97;;
12631;SDS011;6381;45.748;12.106;2022-11-10T02:29:43;45.07;;;40.27;;
12631;SDS011;6381;45.748;12.106;2022-11-10T02:32:30;43.30;;;38.60;;
12631;SDS011;6381;45.748;12.106;2022-11-10T02:35:20;42.33;;;37.57;;
12631;SDS011;6381;45.748;12.106;2022-11-10T02:38:09;41.90;;;36.47;;
12631;SDS011;6381;45.748;12.106;2022-11-10T02:40:56;40.63;;;36.33;;
12631;SDS011;6381;45.748;12.106;2022-11-10T02:43:46;39.87;;;35.13;;
12631;SDS011;6381;45.748;12.106;2022-11-10T02:46:33;39.50;;;34.53;;
12631;SDS011;6381;45.748;12.106;2022-11-10T02:49:21;39.00;;;34.80;;
12631;SDS011;6381;45.748;12.106;2022-11-10T02:52:09;42.47;;;36.23;;
12631;SDS011;6381;45.748;12.106;2022-11-10T02:58:22;38.57;;;33.80;;
12631;SDS011;6381;45.748;12.106;2022-11-10T03:01:09;37.17;;;33.07;;
12631;SDS011;6381;45.748;12.106;2022-11-10T03:07:21;35.77;;;31.87;;
12631;SDS011;6381;45.748;12.106;2022-11-10T03:10:08;37.73;;;33.63;;
12631;SDS011;6381;45.748;12.106;2022-11-10T03:12:57;38.17;;;33.73;;
12631;SDS011;6381;45.748;12.106;2022-11-10T03:15:47;36.27;;;32.20;;
12631;SDS011;6381;45.748;12.106;2022-11-10T03:18:34;35.53;;;31.63;;
12631;SDS011;6381;45.748;12.106;2022-11-10T03:21:21;35.53;;;31.83;;
12631;SDS011;6381;45.748;12.106;2022-11-10T03:24:09;35.97;;;32.07;;
12631;SDS011;6381;45.748;12.106;2022-11-10T03:26:56;35.00;;;31.27;;
12631;SDS011;6381;45.748;12.106;2022-11-10T03:29:43;35.93;;;31.93;;
12631;SDS011;6381;45.748;12.106;2022-11-10T03:32:32;35.53;;;31.87;;
12631;SDS011;6381;45.748;12.106;2022-11-10T03:35:21;36.37;;;32.20;;
12631;SDS011;6381;45.748;12.106;2022-11-10T03:38:28;35.87;;;32.07;;
12631;SDS011;6381;45.748;12.106;2022-11-10T03:41:15;37.20;;;33.17;;
12631;SDS011;6381;45.748;12.106;2022-11-10T03:44:04;38.00;;;33.07;;
12631;SDS011;6381;45.748;12.106;2022-11-10T03:46:52;39.77;;;34.00;;
12631;SDS011;6381;45.748;12.106;2022-11-10T03:49:40;36.40;;;32.43;;
12631;SDS011;6381;45.748;12.106;2022-11-10T03:52:27;37.90;;;32.80;;
12631;SDS011;6381;45.748;12.106;2022-11-10T03:55:16;35.47;;;31.43;;
12631;SDS011;6381;45.748;12.106;2022-11-10T03:58:03;33.73;;;30.03;;
12631;SDS011;6381;45.748;12.106;2022-11-10T04:00:51;35.43;;;31.73;;
12631;SDS011;6381;45.748;12.106;2022-11-10T04:03:40;35.90;;;31.63;;
12631;SDS011;6381;45.748;12.106;2022-11-10T04:06:38;35.47;;;31.60;;
12631;SDS011;6381;45.748;12.106;2022-11-10T04:09:43;33.07;;;29.60;;
12631;SDS011;6381;45.748;12.106;2022-11-10T04:12:31;33.03;;;29.43;;
12631;SDS011;6381;45.748;12.106;2022-11-10T04:15:36;34.20;;;30.60;;
12631;SDS011;6381;45.748;12.106;2022-11-10T04:18:41;35.00;;;30.80;;
12631;SDS011;6381;45.748;12.106;2022-11-10T04:21:31;34.10;;;30.43;;
12631;SDS011;6381;45.748;12.106;2022-11-10T04:24:20;34.07;;;30.43;;
12631;SDS011;6381;45.748;12.106;2022-11-10T04:27:07;34.37;;;30.67;;
12631;SDS011;6381;45.748;12.106;2022-11-10T04:29:54;32.47;;;29.07;;
12631;SDS011;6381;45.748;12.106;2022-11-10T04:33:02;34.43;;;30.20;;
12631;SDS011;6381;45.748;12.106;2022-11-10T04:35:49;34.00;;;30.30;;
12631;SDS011;6381;45.748;12.106;2022-11-10T04:38:37;33.17;;;29.60;;
12631;SDS011;6381;45.748;12.106;2022-11-10T04:41:26;34.07;;;30.37;;
12631;SDS011;6381;45.748;12.106;2022-11-10T04:44:16;33.47;;;29.97;;
12631;SDS011;6381;45.748;12.106;2022-11-10T04:47:04;31.53;;;28.20;;
12631;SDS011;6381;45.748;12.106;2022-11-10T04:49:56;33.43;;;29.70;;
12631;SDS011;6381;45.748;12.106;2022-11-10T04:52:43;34.20;;;30.47;;
12631;SDS011;6381;45.748;12.106;2022-11-10T04:55:30;33.97;;;30.47;;
12631;SDS011;6381;45.748;12.106;2022-11-10T04:58:19;34.10;;;30.57;;
12631;SDS011;6381;45.748;12.106;2022-11-10T05:01:09;34.20;;;30.67;;
12631;SDS011;6381;45.748;12.106;2022-11-10T05:03:56;34.47;;;29.80;;
12631;SDS011;6381;45.748;12.106;2022-11-10T05:06:46;34.67;;;30.97;;
12631;SDS011;6381;45.748;12.106;2022-11-10T05:09:33;35.80;;;31.97;;
12631;SDS011;6381;45.748;12.106;2022-11-10T05:12:20;34.00;;;30.30;;
12631;SDS011;6381;45.748;12.106;2022-11-10T05:15:10;34.17;;;30.47;;
12631;SDS011;6381;45.748;12.106;2022-11-10T05:17:57;36.27;;;31.53;;
12631;SDS011;6381;45.748;12.106;2022-11-10T05:20:44;36.40;;;32.40;;
12631;SDS011;6381;45.748;12.106;2022-11-10T05:23:32;35.43;;;31.43;;
12631;SDS011;6381;45.748;12.106;2022-11-10T05:26:25;36.23;;;32.40;;
12631;SDS011;6381;45.748;12.106;2022-11-10T05:29:13;35.97;;;32.10;;
12631;SDS011;6381;45.748;12.106;2022-11-10T05:32:02;38.17;;;32.40;;
12631;SDS011;6381;45.748;12.106;2022-11-10T05:34:49;33.23;;;29.70;;
12631;SDS011;6381;45.748;12.106;2022-11-10T05:37:38;36.00;;;32.30;;
12631;SDS011;6381;45.748;12.106;2022-11-10T05:40:25;35.27;;;31.63;;
12631;SDS011;6381;45.748;12.106;2022-11-10T05:43:31;35.57;;;31.87;;
12631;SDS011;6381;45.748;12.106;2022-11-10T05:46:18;37.30;;;33.30;;
12631;SDS011;6381;45.748;12.106;2022-11-10T05:49:07;38.27;;;33.93;;
12631;SDS011;6381;45.748;12.106;2022-11-10T05:51:56;36.50;;;32.43;;
12631;SDS011;6381;45.748;12.106;2022-11-10T05:54:43;42.33;;;34.90;;
12631;SDS011;6381;45.748;12.106;2022-11-10T05:57:31;39.23;;;34.03;;
12631;SDS011;6381;45.748;12.106;2022-11-10T06:00:19;36.83;;;32.87;;
12631;SDS011;6381;45.748;12.106;2022-11-10T06:03:10;40.47;;;33.67;;
12631;SDS011;6381;45.748;12.106;2022-11-10T06:06:01;35.13;;;31.33;;
12631;SDS011;6381;45.748;12.106;2022-11-10T06:08:48;39.07;;;34.83;;
12631;SDS011;6381;45.748;12.106;2022-11-10T06:11:36;38.20;;;34.30;;
12631;SDS011;6381;45.748;12.106;2022-11-10T06:14:22;37.83;;;33.87;;
12631;SDS011;6381;45.748;12.106;2022-11-10T06:17:10;33.90;;;30.13;;
12631;SDS011;6381;45.748;12.106;2022-11-10T06:19:57;34.50;;;29.87;;
12631;SDS011;6381;45.748;12.106;2022-11-10T06:22:49;33.30;;;29.90;;
12631;SDS011;6381;45.748;12.106;2022-11-10T06:25:44;33.40;;;29.80;;
12631;SDS011;6381;45.748;12.106;2022-11-10T06:28:31;31.80;;;28.40;;
12631;SDS011;6381;45.748;12.106;2022-11-10T06:31:19;32.13;;;27.90;;
12631;SDS011;6381;45.748;12.106;2022-11-10T06:34:08;29.63;;;26.60;;
12631;SDS011;6381;45.748;12.106;2022-11-10T06:36:55;30.20;;;27.10;;
12631;SDS011;6381;45.748;12.106;2022-11-10T06:39:44;32.20;;;28.00;;
12631;SDS011;6381;45.748;12.106;2022-11-10T06:42:32;28.43;;;25.47;;
12631;SDS011;6381;45.748;12.106;2022-11-10T06:45:22;28.67;;;25.70;;
12631;SDS011;6381;45.748;12.106;2022-11-10T06:48:12;30.57;;;27.37;;
12631;SDS011;6381;45.748;12.106;2022-11-10T06:51:00;30.27;;;27.10;;
12631;SDS011;6381;45.748;12.106;2022-11-10T06:53:48;29.87;;;26.67;;
12631;SDS011;6381;45.748;12.106;2022-11-10T06:56:37;33.07;;;27.90;;
12631;SDS011;6381;45.748;12.106;2022-11-10T06:59:24;30.17;;;27.03;;
12631;SDS011;6381;45.748;12.106;2022-11-10T07:02:12;28.27;;;25.27;;
12631;SDS011;6381;45.748;12.106;2022-11-10T07:05:00;30.67;;;27.47;;
12631;SDS011;6381;45.748;12.106;2022-11-10T07:10:57;29.43;;;26.13;;
12631;SDS011;6381;45.748;12.106;2022-11-10T07:13:48;27.97;;;25.00;;
12631;SDS011;6381;45.748;12.106;2022-11-10T07:16:35;28.83;;;25.83;;
12631;SDS011;6381;45.748;12.106;2022-11-10T07:19:23;28.37;;;25.30;;
12631;SDS011;6381;45.748;12.106;2022-11-10T07:22:10;28.33;;;25.30;;
12631;SDS011;6381;45.748;12.106;2022-11-10T07:24:57;30.00;;;26.43;;
12631;SDS011;6381;45.748;12.106;2022-11-10T07:27:45;30.17;;;26.23;;
12631;SDS011;6381;45.748;12.106;2022-11-10T07:30:39;28.93;;;25.93;;
12631;SDS011;6381;45.748;12.106;2022-11-10T07:33:27;30.83;;;26.53;;
12631;SDS011;6381;45.748;12.106;2022-11-10T07:36:14;29.83;;;26.63;;
12631;SDS011;6381;45.748;12.106;2022-11-10T07:39:02;32.87;;;27.57;;
12631;SDS011;6381;45.748;12.106;2022-11-10T07:41:51;34.47;;;28.97;;
12631;SDS011;6381;45.748;12.106;2022-11-10T07:44:39;33.60;;;28.43;;
12631;SDS011;6381;45.748;12.106;2022-11-10T07:47:27;31.40;;;28.10;;
12631;SDS011;6381;45.748;12.106;2022-11-10T07:50:34;30.13;;;26.90;;
12631;SDS011;6381;45.748;12.106;2022-11-10T07:53:23;30.03;;;25.77;;
12631;SDS011;6381;45.748;12.106;2022-11-10T07:56:10;30.37;;;26.90;;
12631;SDS011;6381;45.748;12.106;2022-11-10T07:58:58;33.37;;;29.73;;
12631;SDS011;6381;45.748;12.106;2022-11-10T08:01:45;33.33;;;29.83;;
12631;SDS011;6381;45.748;12.106;2022-11-10T08:04:34;32.80;;;28.50;;
12631;SDS011;6381;45.748;12.106;2022-11-10T08:07:21;31.13;;;27.43;;
12631;SDS011;6381;45.748;12.106;2022-11-10T08:10:09;31.03;;;27.73;;
12631;SDS011;6381;45.748;12.106;2022-11-10T08:12:57;30.87;;;27.77;;
12631;SDS011;6381;45.748;12.106;2022-11-10T08:16:05;31.20;;;27.50;;
12631;SDS011;6381;45.748;12.106;2022-11-10T08:18:52;30.33;;;27.10;;
12631;SDS011;6381;45.748;12.106;2022-11-10T08:21:41;29.17;;;26.07;;
12631;SDS011;6381;45.748;12.106;2022-11-10T08:24:28;29.83;;;26.20;;
12631;SDS011;6381;45.748;12.106;2022-11-10T08:30:24;28.17;;;24.20;;
12631;SDS011;6381;45.748;12.106;2022-11-10T08:33:30;29.67;;;26.43;;
12631;SDS011;6381;45.748;12.106;2022-11-10T08:36:17;27.13;;;24.33;;
12631;SDS011;6381;45.748;12.106;2022-11-10T08:39:06;26.93;;;24.23;;
12631;SDS011;6381;45.748;12.106;2022-11-10T08:41:53;25.87;;;23.27;;
12631;SDS011;6381;45.748;12.106;2022-11-10T08:44:40;25.63;;;22.93;;
12631;SDS011;6381;45.748;12.106;2022-11-10T08:47:28;25.87;;;23.37;;
12631;SDS011;6381;45.748;12.106;2022-11-10T08:50:15;24.03;;;21.53;;
12631;SDS011;6381;45.748;12.106;2022-11-10T08:53:05;24.47;;;21.97;;
12631;SDS011;6381;45.748;12.106;2022-11-10T08:55:58;24.93;;;22.43;;
12631;SDS011;6381;45.748;12.106;2022-11-10T08:58:45;24.87;;;22.30;;
12631;SDS011;6381;45.748;12.106;2022-11-10T09:01:51;24.70;;;22.20;;
12631;SDS011;6381;45.748;12.106;2022-11-10T09:04:39;25.90;;;23.37;;
12631;SDS011;6381;45.748;12.106;2022-11-10T09:07:26;24.77;;;22.20;;
12631;SDS011;6381;45.748;12.106;2022-11-10T09:13:21;25.70;;;23.17;;
12631;SDS011;6381;45.748;12.106;2022-11-10T09:16:14;25.90;;;23.20;;
12631;SDS011;6381;45.748;12.106;2022-11-10T09:19:01;26.17;;;23.47;;
12631;SDS011;6381;45.748;12.106;2022-11-10T09:21:49;26.90;;;24.10;;
12631;SDS011;6381;45.748;12.106;2022-11-10T09:24:36;25.13;;;22.73;;
12631;SDS011;6381;45.748;12.106;2022-11-10T09:30:32;26.43;;;23.83;;
12631;SDS011;6381;45.748;12.106;2022-11-10T09:33:19;27.63;;;24.67;;
12631;SDS011;6381;45.748;12.106;2022-11-10T09:36:07;27.03;;;24.13;;
12631;SDS011;6381;45.748;12.106;2022-11-10T09:39:15;28.03;;;25.17;;
12631;SDS011;6381;45.748;12.106;2022-11-10T09:42:03;26.77;;;23.87;;
12631;SDS011;6381;45.748;12.106;2022-11-10T09:44:53;27.60;;;24.20;;
12631;SDS011;6381;45.748;12.106;2022-11-10T09:47:47;27.90;;;24.47;;
12631;SDS011;6381;45.748;12.106;2022-11-10T09:50:43;25.37;;;22.77;;
12631;SDS011;6381;45.748;12.106;2022-11-10T09:53:34;24.47;;;21.97;;
12631;SDS011;6381;45.748;12.106;2022-11-10T09:56:26;26.70;;;23.97;;
12631;SDS011;6381;45.748;12.106;2022-11-10T09:59:22;24.40;;;21.87;;
12631;SDS011;6381;45.748;12.106;2022-11-10T10:02:18;28.23;;;22.93;;
12631;SDS011;6381;45.748;12.106;2022-11-10T10:08:39;24.63;;;22.10;;
12631;SDS011;6381;45.748;12.106;2022-11-10T10:11:40;23.50;;;21.10;;
12631;SDS011;6381;45.748;12.106;2022-11-10T10:17:50;22.80;;;20.57;;
12631;SDS011;6381;45.748;12.106;2022-11-10T10:20:51;23.47;;;21.17;;
12631;SDS011;6381;45.748;12.106;2022-11-10T10:27:08;23.30;;;20.77;;
12631;SDS011;6381;45.748;12.106;2022-11-10T10:29:57;22.07;;;19.80;;
12631;SDS011;6381;45.748;12.106;2022-11-10T10:32:45;20.70;;;18.60;;
12631;SDS011;6381;45.748;12.106;2022-11-10T10:35:32;20.23;;;18.20;;
12631;SDS011;6381;45.748;12.106;2022-11-10T10:38:28;18.70;;;16.90;;
12631;SDS011;6381;45.748;12.106;2022-11-10T10:41:21;18.13;;;16.33;;
12631;SDS011;6381;45.748;12.106;2022-11-10T10:44:28;18.73;;;16.93;;
12631;SDS011;6381;45.748;12.106;2022-11-10T10:47:15;16.57;;;14.97;;
12631;SDS011;6381;45.748;12.106;2022-11-10T10:50:15;15.80;;;14.30;;
12631;SDS011;6381;45.748;12.106;2022-11-10T10:53:10;17.07;;;15.40;;
12631;SDS011;6381;45.748;12.106;2022-11-10T10:56:03;16.33;;;14.63;;
12631;SDS011;6381;45.748;12.106;2022-11-10T10:58:53;20.77;;;18.67;;
12631;SDS011;6381;45.748;12.106;2022-11-10T11:01:42;19.73;;;17.83;;
12631;SDS011;6381;45.748;12.106;2022-11-10T11:04:48;14.13;;;12.83;;
12631;SDS011;6381;45.748;12.106;2022-11-10T11:07:57;13.67;;;12.47;;
12631;SDS011;6381;45.748;12.106;2022-11-10T11:10:45;13.60;;;12.30;;
12631;SDS011;6381;45.748;12.106;2022-11-10T11:13:34;13.37;;;12.07;;
12631;SDS011;6381;45.748;12.106;2022-11-10T11:16:21;11.87;;;10.77;;
12631;SDS011;6381;45.748;12.106;2022-11-10T11:19:08;11.90;;;10.73;;
12631;SDS011;6381;45.748;12.106;2022-11-10T11:25:19;10.97;;;9.87;;
12631;SDS011;6381;45.748;12.106;2022-11-10T11:28:15;10.30;;;9.27;;
12631;SDS011;6381;45.748;12.106;2022-11-10T11:31:12;10.13;;;9.23;;
12631;SDS011;6381;45.748;12.106;2022-11-10T11:34:09;8.85;;;8.02;;
12631;SDS011;6381;45.748;12.106;2022-11-10T11:37:04;9.88;;;8.88;;
12631;SDS011;6381;45.748;12.106;2022-11-10T11:43:17;9.93;;;8.82;;
12631;SDS011;6381;45.748;12.106;2022-11-10T11:46:19;8.73;;;7.90;;
12631;SDS011;6381;45.748;12.106;2022-11-10T11:49:22;9.98;;;9.07;;
12631;SDS011;6381;45.748;12.106;2022-11-10T11:52:28;10.48;;;8.75;;
12631;SDS011;6381;45.748;12.106;2022-11-10T11:55:23;6.25;;;5.65;;
12631;SDS011;6381;45.748;12.106;2022-11-10T11:58:23;5.53;;;4.97;;
12631;SDS011;6381;45.748;12.106;2022-11-10T12:01:22;4.97;;;4.47;;
12631;SDS011;6381;45.748;12.106;2022-11-10T12:04:35;4.60;;;4.20;;
12631;SDS011;6381;45.748;12.106;2022-11-10T12:10:44;4.20;;;3.80;;
12631;SDS011;6381;45.748;12.106;2022-11-10T12:13:42;4.93;;;4.53;;
12631;SDS011;6381;45.748;12.106;2022-11-10T12:16:40;5.13;;;4.30;;
12631;SDS011;6381;45.748;12.106;2022-11-10T12:19:37;4.70;;;4.30;;
12631;SDS011;6381;45.748;12.106;2022-11-10T12:22:39;4.70;;;4.30;;
12631;SDS011;6381;45.748;12.106;2022-11-10T12:25:36;5.35;;;4.70;;
12631;SDS011;6381;45.748;12.106;2022-11-10T12:28:45;5.25;;;4.75;;
12631;SDS011;6381;45.748;12.106;2022-11-10T12:31:37;4.28;;;3.88;;
12631;SDS011;6381;45.748;12.106;2022-11-10T12:34:31;5.25;;;4.30;;
12631;SDS011;6381;45.748;12.106;2022-11-10T12:37:23;5.72;;;4.60;;
12631;SDS011;6381;45.748;12.106;2022-11-10T12:40:15;5.90;;;4.63;;
12631;SDS011;6381;45.748;12.106;2022-11-10T12:43:06;5.88;;;4.63;;
12631;SDS011;6381;45.748;12.106;2022-11-10T12:52:20;4.15;;;3.78;;
12631;SDS011;6381;45.748;12.106;2022-11-10T12:55:13;4.70;;;4.03;;
12631;SDS011;6381;45.748;12.106;2022-11-10T12:58:00;7.40;;;4.45;;
12631;SDS011;6381;45.748;12.106;2022-11-10T13:00:54;5.15;;;4.65;;
12631;SDS011;6381;45.748;12.106;2022-11-10T13:03:51;5.00;;;4.60;;
12631;SDS011;6381;45.748;12.106;2022-11-10T13:06:46;6.72;;;4.50;;
12631;SDS011;6381;45.748;12.106;2022-11-10T13:09:36;4.57;;;4.18;;
12631;SDS011;6381;45.748;12.106;2022-11-10T13:12:26;5.20;;;4.80;;
12631;SDS011;6381;45.748;12.106;2022-11-10T13:22:07;3.05;;;2.40;;
12631;SDS011;6381;45.748;12.106;2022-11-10T13:31:53;2.80;;;1.90;;
12631;SDS011;6381;45.748;12.106;2022-11-10T13:34:41;2.58;;;2.30;;
12631;SDS011;6381;45.748;12.106;2022-11-10T13:37:46;2.08;;;1.88;;
12631;SDS011;6381;45.748;12.106;2022-11-10T13:40:35;2.40;;;2.17;;
12631;SDS011;6381;45.748;12.106;2022-11-10T13:43:27;2.60;;;2.40;;
12631;SDS011;6381;45.748;12.106;2022-11-10T13:46:14;2.90;;;2.60;;
12631;SDS011;6381;45.748;12.106;2022-11-10T13:49:25;3.15;;;2.83;;
12631;SDS011;6381;45.748;12.106;2022-11-10T13:52:24;3.20;;;2.85;;
12631;SDS011;6381;45.748;12.106;2022-11-10T13:55:24;2.90;;;2.65;;
12631;SDS011;6381;45.748;12.106;2022-11-10T13:58:23;2.40;;;2.20;;
12631;SDS011;6381;45.748;12.106;2022-11-10T14:01:21;3.05;;;2.65;;
12631;SDS011;6381;45.748;12.106;2022-11-10T14:07:26;2.50;;;2.30;;
12631;SDS011;6381;45.748;12.106;2022-11-10T14:10:37;2.40;;;2.20;;
12631;SDS011;6381;45.748;12.106;2022-11-10T14:13:31;3.97;;;3.23;;
12631;SDS011;6381;45.748;12.106;2022-11-10T14:16:24;3.15;;;2.50;;
12631;SDS011;6381;45.748;12.106;2022-11-10T14:19:30;3.60;;;2.80;;
12631;SDS011;6381;45.748;12.106;2022-11-10T14:22:25;3.28;;;2.42;;
12631;SDS011;6381;45.748;12.106;2022-11-10T14:25:19;2.80;;;2.60;;
12631;SDS011;6381;45.748;12.106;2022-11-10T14:28:24;2.88;;;2.50;;
12631;SDS011;6381;45.748;12.106;2022-11-10T14:31:15;3.38;;;2.50;;
12631;SDS011;6381;45.748;12.106;2022-11-10T14:34:10;6.20;;;2.83;;
12631;SDS011;6381;45.748;12.106;2022-11-10T14:37:00;3.88;;;2.70;;
12631;SDS011;6381;45.748;12.106;2022-11-10T14:39:49;5.20;;;3.38;;
12631;SDS011;6381;45.748;12.106;2022-11-10T14:42:39;5.55;;;2.83;;
12631;SDS011;6381;45.748;12.106;2022-11-10T14:45:27;2.80;;;2.60;;
12631;SDS011;6381;45.748;12.106;2022-11-10T14:48:15;3.38;;;2.50;;
12631;SDS011;6381;45.748;12.106;2022-11-10T14:51:05;3.05;;;2.67;;
12631;SDS011;6381;45.748;12.106;2022-11-10T14:53:57;3.22;;;2.38;;
12631;SDS011;6381;45.748;12.106;2022-11-10T14:56:44;3.80;;;2.90;;
12631;SDS011;6381;45.748;12.106;2022-11-10T14:59:31;7.95;;;3.15;;
12631;SDS011;6381;45.748;12.106;2022-11-10T15:02:20;7.25;;;3.30;;
12631;SDS011;6381;45.748;12.106;2022-11-10T15:05:08;4.65;;;3.28;;
12631;SDS011;6381;45.748;12.106;2022-11-10T15:08:00;4.13;;;3.58;;
12631;SDS011;6381;45.748;12.106;2022-11-10T15:10:50;6.90;;;2.95;;
12631;SDS011;6381;45.748;12.106;2022-11-10T15:13:40;4.78;;;2.60;;
12631;SDS011;6381;45.748;12.106;2022-11-10T15:16:30;4.25;;;2.78;;
12631;SDS011;6381;45.748;12.106;2022-11-10T15:19:25;4.53;;;2.80;;
12631;SDS011;6381;45.748;12.106;2022-11-10T15:22:15;8.98;;;6.18;;
12631;SDS011;6381;45.748;12.106;2022-11-10T15:25:07;5.55;;;3.13;;
12631;SDS011;6381;45.748;12.106;2022-11-10T15:28:01;3.50;;;3.03;;
12631;SDS011;6381;45.748;12.106;2022-11-10T15:30:51;3.25;;;2.75;;
12631;SDS011;6381;45.748;12.106;2022-11-10T15:33:45;3.38;;;2.78;;
12631;SDS011;6381;45.748;12.106;2022-11-10T15:36:36;4.95;;;3.03;;
12631;SDS011;6381;45.748;12.106;2022-11-10T15:39:23;5.00;;;3.17;;
12631;SDS011;6381;45.748;12.106;2022-11-10T15:42:12;3.93;;;3.53;;
12631;SDS011;6381;45.748;12.106;2022-11-10T15:45:01;6.00;;;4.47;;
12631;SDS011;6381;45.748;12.106;2022-11-10T15:47:49;6.47;;;4.60;;
12631;SDS011;6381;45.748;12.106;2022-11-10T15:50:38;6.90;;;4.90;;
12631;SDS011;6381;45.748;12.106;2022-11-10T15:53:29;5.80;;;5.00;;
12631;SDS011;6381;45.748;12.106;2022-11-10T15:56:19;10.03;;;5.00;;
12631;SDS011;6381;45.748;12.106;2022-11-10T15:59:08;11.20;;;7.57;;
12631;SDS011;6381;45.748;12.106;2022-11-10T16:01:56;10.10;;;6.23;;
12631;SDS011;6381;45.748;12.106;2022-11-10T16:04:44;7.50;;;5.37;;
12631;SDS011;6381;45.748;12.106;2022-11-10T16:07:43;6.17;;;5.50;;
12631;SDS011;6381;45.748;12.106;2022-11-10T16:10:32;4.90;;;4.50;;
12631;SDS011;6381;45.748;12.106;2022-11-10T16:13:20;5.30;;;4.53;;
12631;SDS011;6381;45.748;12.106;2022-11-10T16:16:12;8.77;;;5.90;;
12631;SDS011;6381;45.748;12.106;2022-11-10T16:19:01;10.20;;;7.10;;
12631;SDS011;6381;45.748;12.106;2022-11-10T16:21:50;10.97;;;7.10;;
12631;SDS011;6381;45.748;12.106;2022-11-10T16:24:37;6.90;;;6.00;;
12631;SDS011;6381;45.748;12.106;2022-11-10T16:27:27;10.20;;;8.20;;
12631;SDS011;6381;45.748;12.106;2022-11-10T16:30:14;14.03;;;9.97;;
12631;SDS011;6381;45.748;12.106;2022-11-10T16:33:02;8.80;;;7.17;;
12631;SDS011;6381;45.748;12.106;2022-11-10T16:35:49;8.23;;;6.43;;
12631;SDS011;6381;45.748;12.106;2022-11-10T16:38:37;7.23;;;5.67;;
12631;SDS011;6381;45.748;12.106;2022-11-10T16:41:25;5.43;;;4.90;;
12631;SDS011;6381;45.748;12.106;2022-11-10T16:44:13;5.57;;;4.80;;
12631;SDS011;6381;45.748;12.106;2022-11-10T16:47:09;5.20;;;4.70;;
12631;SDS011;6381;45.748;12.106;2022-11-10T16:50:03;4.63;;;4.23;;
12631;SDS011;6381;45.748;12.106;2022-11-10T16:52:55;3.97;;;3.67;;
12631;SDS011;6381;45.748;12.106;2022-11-10T16:55:42;5.67;;;4.10;;
12631;SDS011;6381;45.748;12.106;2022-11-10T16:58:30;5.53;;;3.90;;
12631;SDS011;6381;45.748;12.106;2022-11-10T17:01:19;17.20;;;13.07;;
12631;SDS011;6381;45.748;12.106;2022-11-10T17:04:08;13.10;;;11.47;;
12631;SDS011;6381;45.748;12.106;2022-11-10T17:06:58;7.63;;;6.87;;
12631;SDS011;6381;45.748;12.106;2022-11-10T17:09:45;7.47;;;6.77;;
12631;SDS011;6381;45.748;12.106;2022-11-10T17:12:34;7.20;;;6.50;;
12631;SDS011;6381;45.748;12.106;2022-11-10T17:15:21;7.87;;;6.83;;
12631;SDS011;6381;45.748;12.106;2022-11-10T17:18:10;5.87;;;5.37;;
12631;SDS011;6381;45.748;12.106;2022-11-10T17:21:04;6.27;;;5.27;;
12631;SDS011;6381;45.748;12.106;2022-11-10T17:23:52;9.33;;;6.87;;
12631;SDS011;6381;45.748;12.106;2022-11-10T17:26:42;9.87;;;7.80;;
12631;SDS011;6381;45.748;12.106;2022-11-10T17:29:30;13.80;;;11.50;;
12631;SDS011;6381;45.748;12.106;2022-11-10T17:32:17;15.97;;;11.80;;
12631;SDS011;6381;45.748;12.106;2022-11-10T17:35:22;14.70;;;9.97;;
12631;SDS011;6381;45.748;12.106;2022-11-10T17:38:11;10.90;;;8.80;;
12631;SDS011;6381;45.748;12.106;2022-11-10T17:41:01;13.43;;;11.50;;
12631;SDS011;6381;45.748;12.106;2022-11-10T17:43:48;14.97;;;10.87;;
12631;SDS011;6381;45.748;12.106;2022-11-10T17:46:36;11.57;;;10.37;;
12631;SDS011;6381;45.748;12.106;2022-11-10T17:49:23;14.23;;;10.40;;
12631;SDS011;6381;45.748;12.106;2022-11-10T17:52:11;15.13;;;13.47;;
12631;SDS011;6381;45.748;12.106;2022-11-10T17:55:04;14.70;;;13.20;;
12631;SDS011;6381;45.748;12.106;2022-11-10T17:57:52;11.97;;;10.20;;
12631;SDS011;6381;45.748;12.106;2022-11-10T18:00:41;8.90;;;7.73;;
12631;SDS011;6381;45.748;12.106;2022-11-10T18:03:28;6.83;;;5.50;;
12631;SDS011;6381;45.748;12.106;2022-11-10T18:06:16;6.30;;;5.70;;
12631;SDS011;6381;45.748;12.106;2022-11-10T18:09:08;8.03;;;7.23;;
12631;SDS011;6381;45.748;12.106;2022-11-10T18:11:55;12.27;;;10.93;;